sensor_id;sensor_type;location;lat;lon;timestamp;pressure;altitude;pressure_sealevel;temperature;humidity
78643;BME280;67954;47.618;17.606;2023-04-10T00:00:04;101126.16;;;2.98;82.47
78643;BME280;67954;47.618;17.606;2023-04-10T00:00:36;101129.94;;;2.92;82.78
78643;BME280;67954;47.618;17.606;2023-04-10T00:01:08;101125.72;;;2.88;82.90
78643;BME280;67954;47.618;17.606;2023-04-10T00:01:39;101129.94;;;2.92;82.83
78643;BME280;67954;47.618;17.606;2023-04-10T00:02:11;101128.00;;;2.96;83.03
78643;BME280;67954;47.618;17.606;2023-04-10T00:02:42;101122.69;;;2.96;82.21
78643;BME280;67954;47.618;17.606;2023-04-10T00:03:14;101129.81;;;2.95;82.38
78643;BME280;67954;47.618;17.606;2023-04-10T00:03:47;101127.06;;;2.97;83.01
78643;BME280;67954;47.618;17.606;2023-04-10T00:04:18;101123.63;;;2.95;82.94
78643;BME280;67954;47.618;17.606;2023-04-10T00:04:48;101130.75;;;2.94;82.58
78643;BME280;67954;47.618;17.606;2023-04-10T00:05:20;101125.97;;;2.83;83.52
78643;BME280;67954;47.618;17.606;2023-04-10T00:05:51;101126.19;;;2.79;83.42
78643;BME280;67954;47.618;17.606;2023-04-10T00:06:24;101118.94;;;2.65;84.19
78643;BME280;67954;47.618;17.606;2023-04-10T00:06:57;101126.16;;;2.62;84.95
78643;BME280;67954;47.618;17.606;2023-04-10T00:07:29;101123.22;;;2.68;84.66
78643;BME280;67954;47.618;17.606;2023-04-10T00:08:01;101122.75;;;2.77;84.05
78643;BME280;67954;47.618;17.606;2023-04-10T00:08:33;101117.31;;;2.80;83.88
78643;BME280;67954;47.618;17.606;2023-04-10T00:09:04;101116.97;;;2.86;83.73
78643;BME280;67954;47.618;17.606;2023-04-10T00:09:35;101123.00;;;2.90;83.16
78643;BME280;67954;47.618;17.606;2023-04-10T00:10:06;101119.25;;;2.94;83.91
78643;BME280;67954;47.618;17.606;2023-04-10T00:10:38;101113.25;;;2.90;83.76
78643;BME280;67954;47.618;17.606;2023-04-10T00:11:09;101117.47;;;2.94;83.48
78643;BME280;67954;47.618;17.606;2023-04-10T00:11:40;101128.00;;;2.96;83.81
78643;BME280;67954;47.618;17.606;2023-04-10T00:12:11;101123.69;;;2.76;84.61
78643;BME280;67954;47.618;17.606;2023-04-10T00:12:42;101117.72;;;2.72;84.05
78643;BME280;67954;47.618;17.606;2023-04-10T00:13:13;101117.78;;;2.71;85.16
78643;BME280;67954;47.618;17.606;2023-04-10T00:13:45;101116.59;;;2.76;84.97
78643;BME280;67954;47.618;17.606;2023-04-10T00:14:16;101117.09;;;2.84;85.29
78643;BME280;67954;47.618;17.606;2023-04-10T00:14:52;101122.06;;;2.91;85.03
78643;BME280;67954;47.618;17.606;2023-04-10T00:15:23;101123.72;;;2.93;84.98
78643;BME280;67954;47.618;17.606;2023-04-10T00:15:55;101119.78;;;3.00;84.52
78643;BME280;67954;47.618;17.606;2023-04-10T00:16:26;101113.47;;;3.03;84.32
78643;BME280;67954;47.618;17.606;2023-04-10T00:16:56;101123.09;;;3.05;83.97
78643;BME280;67954;47.618;17.606;2023-04-10T00:17:28;101120.44;;;3.05;84.43
78643;BME280;67954;47.618;17.606;2023-04-10T00:17:59;101118.63;;;3.06;83.70
78643;BME280;67954;47.618;17.606;2023-04-10T00:18:30;101125.03;;;3.02;83.57
78643;BME280;67954;47.618;17.606;2023-04-10T00:19:02;101118.88;;;2.84;84.14
78643;BME280;67954;47.618;17.606;2023-04-10T00:19:32;101119.16;;;2.78;84.71
78643;BME280;67954;47.618;17.606;2023-04-10T00:20:04;101122.22;;;2.70;85.37
78643;BME280;67954;47.618;17.606;2023-04-10T00:20:35;101116.59;;;2.76;86.03
78643;BME280;67954;47.618;17.606;2023-04-10T00:21:07;101114.09;;;2.73;86.49
78643;BME280;67954;47.618;17.606;2023-04-10T00:21:38;101108.56;;;2.78;86.19
78643;BME280;67954;47.618;17.606;2023-04-10T00:22:09;101117.94;;;2.68;86.21
78643;BME280;67954;47.618;17.606;2023-04-10T00:22:42;101115.66;;;2.77;88.26
78643;BME280;67954;47.618;17.606;2023-04-10T00:23:12;101119.31;;;2.75;88.93
78643;BME280;67954;47.618;17.606;2023-04-10T00:23:43;101118.69;;;2.87;89.03
78643;BME280;67954;47.618;17.606;2023-04-10T00:24:14;101122.00;;;2.92;88.18
78643;BME280;67954;47.618;17.606;2023-04-10T00:24:46;101118.81;;;2.85;87.43
78643;BME280;67954;47.618;17.606;2023-04-10T00:25:17;101119.56;;;2.87;86.98
78643;BME280;67954;47.618;17.606;2023-04-10T00:25:47;101115.44;;;2.82;86.45
78643;BME280;67954;47.618;17.606;2023-04-10T00:26:19;101119.78;;;2.66;87.10
78643;BME280;67954;47.618;17.606;2023-04-10T00:26:50;101111.13;;;2.62;86.60
78643;BME280;67954;47.618;17.606;2023-04-10T00:27:21;101115.28;;;2.68;87.51
78643;BME280;67954;47.618;17.606;2023-04-10T00:27:53;101117.31;;;2.80;87.69
78643;BME280;67954;47.618;17.606;2023-04-10T00:28:24;101108.94;;;2.87;87.07
78643;BME280;67954;47.618;17.606;2023-04-10T00:28:54;101116.69;;;2.92;86.84
78643;BME280;67954;47.618;17.606;2023-04-10T00:29:26;101117.47;;;2.94;86.77
78643;BME280;67954;47.618;17.606;2023-04-10T00:29:57;101117.13;;;3.00;86.72
78643;BME280;67954;47.618;17.606;2023-04-10T00:30:28;101108.94;;;3.05;86.13
78643;BME280;67954;47.618;17.606;2023-04-10T00:30:59;101113.25;;;3.07;85.87
78643;BME280;67954;47.618;17.606;2023-04-10T00:31:31;101114.25;;;3.05;85.22
78643;BME280;67954;47.618;17.606;2023-04-10T00:32:01;101115.38;;;2.83;84.76
78643;BME280;67954;47.618;17.606;2023-04-10T00:32:33;101108.09;;;2.87;84.94
78643;BME280;67954;47.618;17.606;2023-04-10T00:33:04;101103.25;;;2.78;85.11
78643;BME280;67954;47.618;17.606;2023-04-10T00:33:35;101119.75;;;2.84;85.44
78643;BME280;67954;47.618;17.606;2023-04-10T00:34:07;101110.50;;;2.92;85.93
78643;BME280;67954;47.618;17.606;2023-04-10T00:34:58;101114.81;;;2.94;85.16
78643;BME280;67954;47.618;17.606;2023-04-10T00:35:28;101115.34;;;3.01;85.03
78643;BME280;67954;47.618;17.606;2023-04-10T00:36:01;101118.06;;;2.99;85.31
78643;BME280;67954;47.618;17.606;2023-04-10T00:36:32;101113.47;;;3.03;84.74
78643;BME280;67954;47.618;17.606;2023-04-10T00:37:02;101113.63;;;3.00;84.81
78643;BME280;67954;47.618;17.606;2023-04-10T00:37:34;101109.81;;;2.88;84.35
78643;BME280;67954;47.618;17.606;2023-04-10T00:38:07;101111.44;;;2.91;84.28
78643;BME280;67954;47.618;17.606;2023-04-10T00:38:38;101118.41;;;2.93;84.88
78643;BME280;67954;47.618;17.606;2023-04-10T00:39:09;101112.38;;;2.90;84.68
78643;BME280;67954;47.618;17.606;2023-04-10T00:39:40;101116.16;;;2.85;85.42
78643;BME280;67954;47.618;17.606;2023-04-10T00:40:12;101116.03;;;2.87;85.32
78643;BME280;67954;47.618;17.606;2023-04-10T00:40:43;101115.91;;;2.90;84.63
78643;BME280;67954;47.618;17.606;2023-04-10T00:41:15;101113.09;;;2.93;84.76
78643;BME280;67954;47.618;17.606;2023-04-10T00:41:46;101120.13;;;2.94;84.37
78643;BME280;67954;47.618;17.606;2023-04-10T00:42:18;101110.69;;;2.71;85.51
78643;BME280;67954;47.618;17.606;2023-04-10T00:42:48;101106.00;;;2.59;86.03
78643;BME280;67954;47.618;17.606;2023-04-10T00:43:20;101113.63;;;2.65;86.41
78643;BME280;67954;47.618;17.606;2023-04-10T00:43:54;101120.97;;;2.77;86.45
78643;BME280;67954;47.618;17.606;2023-04-10T00:44:26;101122.53;;;2.81;85.69
78643;BME280;67954;47.618;17.606;2023-04-10T00:44:57;101115.44;;;2.82;85.18
78643;BME280;67954;47.618;17.606;2023-04-10T00:45:28;101116.97;;;2.86;85.76
78643;BME280;67954;47.618;17.606;2023-04-10T00:46:00;101124.13;;;2.85;86.20
78643;BME280;67954;47.618;17.606;2023-04-10T00:46:31;101114.97;;;2.91;85.93
78643;BME280;67954;47.618;17.606;2023-04-10T00:47:05;101118.25;;;2.96;86.60
78643;BME280;67954;47.618;17.606;2023-04-10T00:47:37;101119.34;;;2.92;87.82
78643;BME280;67954;47.618;17.606;2023-04-10T00:48:08;101107.78;;;2.93;87.77
78643;BME280;67954;47.618;17.606;2023-04-10T00:48:40;101119.13;;;2.97;88.61
78643;BME280;67954;47.618;17.606;2023-04-10T00:49:11;101114.66;;;2.97;89.02
78643;BME280;67954;47.618;17.606;2023-04-10T00:49:42;101116.13;;;3.03;88.50
78643;BME280;67954;47.618;17.606;2023-04-10T00:50:13;101119.41;;;3.08;88.06
78643;BME280;67954;47.618;17.606;2023-04-10T00:50:45;101110.66;;;3.06;88.38
78643;BME280;67954;47.618;17.606;2023-04-10T00:51:17;101120.44;;;3.05;87.75
78643;BME280;67954;47.618;17.606;2023-04-10T00:51:50;101120.88;;;3.13;87.14
78643;BME280;67954;47.618;17.606;2023-04-10T00:52:22;101116.19;;;3.18;86.80
78643;BME280;67954;47.618;17.606;2023-04-10T00:52:54;101122.59;;;3.14;87.07
78643;BME280;67954;47.618;17.606;2023-04-10T00:53:28;101116.75;;;3.08;86.71
78643;BME280;67954;47.618;17.606;2023-04-10T00:53:59;101116.16;;;2.85;88.08
78643;BME280;67954;47.618;17.606;2023-04-10T00:54:31;101112.88;;;2.98;89.84
78643;BME280;67954;47.618;17.606;2023-04-10T00:55:06;101116.75;;;3.08;89.88
78643;BME280;67954;47.618;17.606;2023-04-10T00:55:37;101112.47;;;3.05;89.41
78643;BME280;67954;47.618;17.606;2023-04-10T00:56:08;101114.47;;;3.00;89.38
78643;BME280;67954;47.618;17.606;2023-04-10T00:56:40;101117.84;;;3.04;88.85
78643;BME280;67954;47.618;17.606;2023-04-10T00:57:12;101114.81;;;3.11;88.16
78643;BME280;67954;47.618;17.606;2023-04-10T00:57:44;101118.00;;;3.18;87.78
78643;BME280;67954;47.618;17.606;2023-04-10T00:58:16;101115.25;;;3.19;87.44
78643;BME280;67954;47.618;17.606;2023-04-10T00:58:47;101115.41;;;3.16;87.22
78643;BME280;67954;47.618;17.606;2023-04-10T00:59:18;101119.00;;;3.15;87.31
78643;BME280;67954;47.618;17.606;2023-04-10T00:59:50;101116.50;;;3.12;87.07
78643;BME280;67954;47.618;17.606;2023-04-10T01:00:22;101119.66;;;3.03;86.93
78643;BME280;67954;47.618;17.606;2023-04-10T01:00:53;101111.44;;;3.08;87.40
78643;BME280;67954;47.618;17.606;2023-04-10T01:01:24;101115.56;;;3.13;86.80
78643;BME280;67954;47.618;17.606;2023-04-10T01:01:56;101122.16;;;3.06;86.45
78643;BME280;67954;47.618;17.606;2023-04-10T01:02:27;101123.31;;;3.01;86.51
78643;BME280;67954;47.618;17.606;2023-04-10T01:02:58;101127.94;;;2.97;87.06
78643;BME280;67954;47.618;17.606;2023-04-10T01:03:30;101117.94;;;3.02;86.97
78643;BME280;67954;47.618;17.606;2023-04-10T01:04:02;101119.50;;;3.06;86.52
78643;BME280;67954;47.618;17.606;2023-04-10T01:04:33;101124.94;;;3.03;86.73
78643;BME280;67954;47.618;17.606;2023-04-10T01:06:54;101118.69;;;2.53;90.41
78643;BME280;67954;47.618;17.606;2023-04-10T01:07:40;101118.00;;;2.66;89.33
78643;BME280;67954;47.618;17.606;2023-04-10T01:08:25;101124.69;;;2.73;89.43
78643;BME280;67954;47.618;17.606;2023-04-10T01:09:10;101116.97;;;2.86;88.73
78643;BME280;67954;47.618;17.606;2023-04-10T01:09:47;101120.13;;;2.94;88.22
78643;BME280;67954;47.618;17.606;2023-04-10T01:10:27;101122.63;;;2.97;87.35
78643;BME280;67954;47.618;17.606;2023-04-10T01:11:04;101115.53;;;2.98;87.49
78643;BME280;67954;47.618;17.606;2023-04-10T01:11:46;101116.75;;;2.91;87.50
78643;BME280;67954;47.618;17.606;2023-04-10T01:12:39;101114.19;;;2.89;87.43
78643;BME280;67954;47.618;17.606;2023-04-10T01:13:21;101113.97;;;2.94;87.21
78643;BME280;67954;47.618;17.606;2023-04-10T01:14:00;101109.13;;;2.84;87.34
78643;BME280;67954;47.618;17.606;2023-04-10T01:14:43;101114.00;;;2.75;88.17
78643;BME280;67954;47.618;17.606;2023-04-10T01:15:20;101122.44;;;2.66;88.54
78643;BME280;67954;47.618;17.606;2023-04-10T01:15:58;101118.06;;;2.65;89.50
78643;BME280;67954;47.618;17.606;2023-04-10T01:16:35;101119.06;;;2.62;89.75
78643;BME280;67954;47.618;17.606;2023-04-10T01:17:12;101120.41;;;2.54;90.18
78643;BME280;67954;47.618;17.606;2023-04-10T01:17:53;101115.63;;;2.60;89.87
78643;BME280;67954;47.618;17.606;2023-04-10T01:18:30;101118.00;;;2.66;89.71
78643;BME280;67954;47.618;17.606;2023-04-10T01:19:10;101115.66;;;2.77;88.74
78643;BME280;67954;47.618;17.606;2023-04-10T01:19:57;101121.34;;;2.87;88.85
78643;BME280;67954;47.618;17.606;2023-04-10T01:20:33;101115.91;;;2.90;87.81
78643;BME280;67954;47.618;17.606;2023-04-10T01:21:07;101118.47;;;2.92;88.00
78643;BME280;67954;47.618;17.606;2023-04-10T01:21:41;101114.81;;;2.94;87.34
78643;BME280;67954;47.618;17.606;2023-04-10T01:22:14;101112.09;;;2.96;87.02
78643;BME280;67954;47.618;17.606;2023-04-10T01:24:23;101113.72;;;2.98;86.62
78643;BME280;67954;47.618;17.606;2023-04-10T01:25:11;101116.91;;;2.87;87.25
78643;BME280;67954;47.618;17.606;2023-04-10T01:25:51;101113.72;;;2.81;87.58
78643;BME280;67954;47.618;17.606;2023-04-10T01:26:35;101112.94;;;2.79;87.26
78643;BME280;67954;47.618;17.606;2023-04-10T01:27:11;101114.00;;;2.75;87.76
78643;BME280;67954;47.618;17.606;2023-04-10T01:28:06;101119.31;;;2.75;86.90
78643;BME280;67954;47.618;17.606;2023-04-10T01:28:58;101110.91;;;2.67;87.13
78643;BME280;67954;47.618;17.606;2023-04-10T01:29:31;101111.34;;;2.75;86.75
78643;BME280;67954;47.618;17.606;2023-04-10T01:30:05;101107.63;;;2.79;87.29
78643;BME280;67954;47.618;17.606;2023-04-10T01:30:40;101111.13;;;2.79;87.28
78643;BME280;67954;47.618;17.606;2023-04-10T01:31:18;101111.22;;;2.78;86.95
78643;BME280;67954;47.618;17.606;2023-04-10T01:31:53;101113.47;;;2.68;87.45
78643;BME280;67954;47.618;17.606;2023-04-10T01:32:29;101110.81;;;2.68;86.83
78643;BME280;67954;47.618;17.606;2023-04-10T01:33:09;101108.72;;;2.75;86.69
78643;BME280;67954;47.618;17.606;2023-04-10T01:33:46;101104.66;;;2.68;86.85
78643;BME280;67954;47.618;17.606;2023-04-10T01:34:22;101107.25;;;2.69;87.37
78643;BME280;67954;47.618;17.606;2023-04-10T01:34:56;101103.00;;;2.65;86.92
78643;BME280;67954;47.618;17.606;2023-04-10T01:35:31;101108.97;;;2.70;87.24
78643;BME280;67954;47.618;17.606;2023-04-10T01:36:06;101108.63;;;2.76;86.87
78643;BME280;67954;47.618;17.606;2023-04-10T01:36:46;101113.22;;;2.73;87.31
78643;BME280;67954;47.618;17.606;2023-04-10T01:37:23;101105.97;;;2.76;86.91
78643;BME280;67954;47.618;17.606;2023-04-10T01:37:57;101119.03;;;2.81;86.82
78643;BME280;67954;47.618;17.606;2023-04-10T01:38:31;101110.91;;;2.67;86.02
78643;BME280;67954;47.618;17.606;2023-04-10T01:39:04;101115.81;;;2.57;86.97
78643;BME280;67954;47.618;17.606;2023-04-10T01:39:38;101109.06;;;2.50;86.50
78643;BME280;67954;47.618;17.606;2023-04-10T01:40:14;101118.41;;;2.40;87.12
78643;BME280;67954;47.618;17.606;2023-04-10T01:40:51;101109.81;;;2.35;87.18
78643;BME280;67954;47.618;17.606;2023-04-10T01:41:43;101114.69;;;2.44;87.63
78643;BME280;67954;47.618;17.606;2023-04-10T01:42:16;101114.75;;;2.42;87.10
78643;BME280;67954;47.618;17.606;2023-04-10T01:42:52;101110.72;;;2.53;86.97
78643;BME280;67954;47.618;17.606;2023-04-10T01:43:25;101113.97;;;2.40;87.07
78643;BME280;67954;47.618;17.606;2023-04-10T01:43:59;101108.47;;;2.26;88.43
78643;BME280;67954;47.618;17.606;2023-04-10T01:44:35;101111.78;;;2.12;88.54
78643;BME280;67954;47.618;17.606;2023-04-10T01:45:12;101099.72;;;2.07;88.02
78643;BME280;67954;47.618;17.606;2023-04-10T01:45:47;101109.59;;;2.03;88.77
78643;BME280;67954;47.618;17.606;2023-04-10T01:46:20;101113.25;;;2.01;88.70
78643;BME280;67954;47.618;17.606;2023-04-10T01:46:54;101102.44;;;1.87;89.29
78643;BME280;67954;47.618;17.606;2023-04-10T01:47:26;101104.84;;;1.72;89.32
78643;BME280;67954;47.618;17.606;2023-04-10T01:47:57;101106.38;;;1.78;89.32
78643;BME280;67954;47.618;17.606;2023-04-10T01:48:30;101102.56;;;1.84;89.56
78643;BME280;67954;47.618;17.606;2023-04-10T01:49:01;101103.50;;;1.83;89.20
78643;BME280;67954;47.618;17.606;2023-04-10T01:49:33;101108.78;;;1.83;89.60
78643;BME280;67954;47.618;17.606;2023-04-10T01:50:08;101103.88;;;1.94;89.34
78643;BME280;67954;47.618;17.606;2023-04-10T01:50:40;101103.69;;;1.97;88.42
78643;BME280;67954;47.618;17.606;2023-04-10T01:51:12;101107.88;;;2.02;88.19
78643;BME280;67954;47.618;17.606;2023-04-10T01:51:47;101104.84;;;2.10;88.32
78643;BME280;67954;47.618;17.606;2023-04-10T01:52:20;101104.50;;;1.99;87.58
78643;BME280;67954;47.618;17.606;2023-04-10T01:52:53;101101.00;;;1.98;87.99
78643;BME280;67954;47.618;17.606;2023-04-10T01:53:27;101100.72;;;1.86;88.61
78643;BME280;67954;47.618;17.606;2023-04-10T01:54:00;101099.84;;;1.66;88.75
78643;BME280;67954;47.618;17.606;2023-04-10T01:55:41;101105.00;;;1.51;89.95
78643;BME280;67954;47.618;17.606;2023-04-10T01:56:15;101101.84;;;1.61;89.08
78643;BME280;67954;47.618;17.606;2023-04-10T01:56:46;101109.22;;;1.73;88.61
78643;BME280;67954;47.618;17.606;2023-04-10T01:57:17;101106.94;;;1.85;88.15
78643;BME280;67954;47.618;17.606;2023-04-10T01:57:49;101104.94;;;1.90;88.41
78643;BME280;67954;47.618;17.606;2023-04-10T01:58:21;101105.59;;;1.95;87.59
78643;BME280;67954;47.618;17.606;2023-04-10T01:58:52;101102.94;;;1.95;87.58
78643;BME280;67954;47.618;17.606;2023-04-10T01:59:25;101105.34;;;1.99;87.91
78643;BME280;67954;47.618;17.606;2023-04-10T01:59:56;101105.28;;;2.01;87.83
78643;BME280;67954;47.618;17.606;2023-04-10T02:00:27;101102.63;;;2.01;87.26
78643;BME280;67954;47.618;17.606;2023-04-10T02:00:59;101101.72;;;2.02;86.89
78643;BME280;67954;47.618;17.606;2023-04-10T02:01:30;101096.41;;;2.02;86.76
78643;BME280;67954;47.618;17.606;2023-04-10T02:02:00;101099.84;;;2.04;86.59
78643;BME280;67954;47.618;17.606;2023-04-10T02:02:34;101098.19;;;2.01;87.28
78643;BME280;67954;47.618;17.606;2023-04-10T02:03:05;101100.91;;;2.00;86.85
78643;BME280;67954;47.618;17.606;2023-04-10T02:03:35;101099.06;;;2.02;86.48
78643;BME280;67954;47.618;17.606;2023-04-10T02:04:07;101100.13;;;1.98;86.75
78643;BME280;67954;47.618;17.606;2023-04-10T02:04:38;101101.72;;;2.02;87.36
78643;BME280;67954;47.618;17.606;2023-04-10T02:05:09;101104.34;;;2.02;86.65
78643;BME280;67954;47.618;17.606;2023-04-10T02:05:51;101100.28;;;1.95;87.41
78643;BME280;67954;47.618;17.606;2023-04-10T02:06:32;101105.16;;;2.04;87.51
78643;BME280;67954;47.618;17.606;2023-04-10T02:07:09;101094.41;;;2.07;87.59
78643;BME280;67954;47.618;17.606;2023-04-10T02:07:48;101102.56;;;2.02;87.58
78643;BME280;67954;47.618;17.606;2023-04-10T02:08:26;101096.78;;;1.94;88.37
78643;BME280;67954;47.618;17.606;2023-04-10T02:09:11;101096.69;;;1.96;87.85
78643;BME280;67954;47.618;17.606;2023-04-10T02:09:50;101098.13;;;1.84;87.81
78643;BME280;67954;47.618;17.606;2023-04-10T02:10:29;101097.84;;;1.90;88.08
78643;BME280;67954;47.618;17.606;2023-04-10T02:11:10;101096.78;;;1.75;89.25
78643;BME280;67954;47.618;17.606;2023-04-10T02:11:48;101092.53;;;1.71;88.94
78643;BME280;67954;47.618;17.606;2023-04-10T02:12:27;101099.19;;;1.61;89.57
78643;BME280;67954;47.618;17.606;2023-04-10T02:13:00;101099.84;;;1.66;89.86
78643;BME280;67954;47.618;17.606;2023-04-10T02:13:38;101093.69;;;1.66;90.42
78643;BME280;67954;47.618;17.606;2023-04-10T02:14:15;101093.06;;;1.79;89.64
78643;BME280;67954;47.618;17.606;2023-04-10T02:14:49;101093.47;;;1.89;89.59
78643;BME280;67954;47.618;17.606;2023-04-10T02:15:23;101091.69;;;1.90;89.15
78643;BME280;67954;47.618;17.606;2023-04-10T02:15:59;101099.84;;;2.04;88.93
78643;BME280;67954;47.618;17.606;2023-04-10T02:16:35;101091.59;;;2.10;88.86
78643;BME280;67954;47.618;17.606;2023-04-10T02:17:08;101093.03;;;2.17;88.14
78643;BME280;67954;47.618;17.606;2023-04-10T02:17:40;101095.59;;;2.19;88.07
78643;BME280;67954;47.618;17.606;2023-04-10T02:18:15;101094.03;;;2.14;87.73
78643;BME280;67954;47.618;17.606;2023-04-10T02:18:48;101087.94;;;2.12;87.77
78643;BME280;67954;47.618;17.606;2023-04-10T02:19:24;101088.31;;;2.05;88.28
78643;BME280;67954;47.618;17.606;2023-04-10T02:19:57;101099.06;;;2.02;88.55
78643;BME280;67954;47.618;17.606;2023-04-10T02:20:29;101091.03;;;2.03;89.00
78643;BME280;67954;47.618;17.606;2023-04-10T02:21:02;101084.66;;;2.07;89.47
78643;BME280;67954;47.618;17.606;2023-04-10T02:21:33;101089.19;;;2.05;89.10
78643;BME280;67954;47.618;17.606;2023-04-10T02:22:05;101091.09;;;2.02;89.07
78643;BME280;67954;47.618;17.606;2023-04-10T02:22:39;101086.53;;;2.05;89.59
78643;BME280;67954;47.618;17.606;2023-04-10T02:23:14;101089.78;;;2.10;89.46
78643;BME280;67954;47.618;17.606;2023-04-10T02:23:46;101085.28;;;2.12;88.93
78643;BME280;67954;47.618;17.606;2023-04-10T02:24:19;101088.53;;;2.19;88.61
78643;BME280;67954;47.618;17.606;2023-04-10T02:24:51;101088.28;;;2.24;88.54
78643;BME280;67954;47.618;17.606;2023-04-10T02:25:22;101091.72;;;2.26;88.38
78643;BME280;67954;47.618;17.606;2023-04-10T02:25:54;101088.00;;;2.30;88.32
78643;BME280;67954;47.618;17.606;2023-04-10T02:26:26;101095.00;;;2.31;87.47
78643;BME280;67954;47.618;17.606;2023-04-10T02:26:57;101085.06;;;2.17;87.98
78643;BME280;67954;47.618;17.606;2023-04-10T02:27:31;101090.06;;;2.23;88.76
78643;BME280;67954;47.618;17.606;2023-04-10T02:28:03;101093.16;;;2.33;88.13
78643;BME280;67954;47.618;17.606;2023-04-10T02:28:36;101094.75;;;2.35;88.38
78643;BME280;67954;47.618;17.606;2023-04-10T02:29:07;101093.03;;;2.34;88.19
78643;BME280;67954;47.618;17.606;2023-04-10T02:29:39;101091.91;;;2.40;87.68
78643;BME280;67954;47.618;17.606;2023-04-10T02:30:11;101092.69;;;2.42;87.85
78643;BME280;67954;47.618;17.606;2023-04-10T02:30:42;101090.91;;;2.42;87.86
78643;BME280;67954;47.618;17.606;2023-04-10T02:31:14;101089.41;;;2.37;88.68
78643;BME280;67954;47.618;17.606;2023-04-10T02:31:45;101091.50;;;2.30;88.96
78643;BME280;67954;47.618;17.606;2023-04-10T02:32:16;101090.13;;;2.22;89.21
78643;BME280;67954;47.618;17.606;2023-04-10T02:32:48;101098.53;;;2.12;89.83
78643;BME280;67954;47.618;17.606;2023-04-10T02:33:19;101094.25;;;2.10;90.69
78643;BME280;67954;47.618;17.606;2023-04-10T02:33:50;101088.78;;;2.13;91.11
78643;BME280;67954;47.618;17.606;2023-04-10T02:34:21;101098.19;;;2.20;91.22
78643;BME280;67954;47.618;17.606;2023-04-10T02:34:52;101095.38;;;2.23;91.03
78643;BME280;67954;47.618;17.606;2023-04-10T02:35:23;101095.09;;;2.29;90.20
78643;BME280;67954;47.618;17.606;2023-04-10T02:35:55;101093.91;;;2.35;90.53
78643;BME280;67954;47.618;17.606;2023-04-10T02:36:26;101099.94;;;2.38;89.39
78643;BME280;67954;47.618;17.606;2023-04-10T02:36:57;101098.22;;;2.37;89.14
78643;BME280;67954;47.618;17.606;2023-04-10T02:37:28;101094.75;;;2.35;88.58
78643;BME280;67954;47.618;17.606;2023-04-10T02:38:00;101098.13;;;2.39;88.43
78643;BME280;67954;47.618;17.606;2023-04-10T02:38:31;101089.41;;;2.37;88.61
78643;BME280;67954;47.618;17.606;2023-04-10T02:39:02;101092.75;;;2.40;88.49
78643;BME280;67954;47.618;17.606;2023-04-10T02:39:34;101090.03;;;2.42;88.33
78643;BME280;67954;47.618;17.606;2023-04-10T02:40:07;101092.69;;;2.42;88.32
78643;BME280;67954;47.618;17.606;2023-04-10T02:40:38;101098.06;;;2.40;87.53
78643;BME280;67954;47.618;17.606;2023-04-10T02:41:10;101097.47;;;2.17;87.90
78643;BME280;67954;47.618;17.606;2023-04-10T02:41:41;101094.25;;;2.10;88.54
78643;BME280;67954;47.618;17.606;2023-04-10T02:42:12;101085.34;;;2.11;88.73
78643;BME280;67954;47.618;17.606;2023-04-10T02:42:43;101089.38;;;2.20;88.43
78643;BME280;67954;47.618;17.606;2023-04-10T02:43:14;101085.00;;;2.19;88.17
78643;BME280;67954;47.618;17.606;2023-04-10T02:48:06;101093.47;;;2.44;88.79
78643;BME280;67954;47.618;17.606;2023-04-10T02:48:40;101088.47;;;2.38;88.40
78643;BME280;67954;47.618;17.606;2023-04-10T02:49:11;101089.47;;;2.35;87.93
78643;BME280;67954;47.618;17.606;2023-04-10T02:49:43;101091.19;;;2.36;87.23
78643;BME280;67954;47.618;17.606;2023-04-10T02:50:14;101086.22;;;2.11;87.57
78643;BME280;67954;47.618;17.606;2023-04-10T02:50:46;101085.53;;;1.89;89.54
78643;BME280;67954;47.618;17.606;2023-04-10T02:51:17;101081.38;;;1.84;88.70
78643;BME280;67954;47.618;17.606;2023-04-10T02:51:49;101081.28;;;1.85;89.01
78643;BME280;67954;47.618;17.606;2023-04-10T02:52:20;101090.97;;;1.86;89.02
78643;BME280;67954;47.618;17.606;2023-04-10T02:52:50;101090.09;;;1.86;89.24
78643;BME280;67954;47.618;17.606;2023-04-10T02:53:24;101083.09;;;1.85;89.67
78643;BME280;67954;47.618;17.606;2023-04-10T02:53:55;101082.88;;;1.89;90.03
78643;BME280;67954;47.618;17.606;2023-04-10T02:54:26;101086.66;;;2.02;89.56
78643;BME280;67954;47.618;17.606;2023-04-10T02:54:58;101085.34;;;2.11;88.96
78643;BME280;67954;47.618;17.606;2023-04-10T02:55:28;101087.66;;;2.19;89.30
78643;BME280;67954;47.618;17.606;2023-04-10T02:55:59;101094.56;;;2.21;89.14
78643;BME280;67954;47.618;17.606;2023-04-10T02:56:32;101090.94;;;2.24;89.11
78643;BME280;67954;47.618;17.606;2023-04-10T02:57:03;101090.00;;;2.25;88.70
78643;BME280;67954;47.618;17.606;2023-04-10T02:57:34;101092.44;;;2.29;88.02
78643;BME280;67954;47.618;17.606;2023-04-10T02:58:06;101087.91;;;2.31;88.31
78643;BME280;67954;47.618;17.606;2023-04-10T02:58:37;101098.59;;;2.30;88.29
78643;BME280;67954;47.618;17.606;2023-04-10T02:59:09;101091.56;;;2.29;87.48
78643;BME280;67954;47.618;17.606;2023-04-10T02:59:41;101093.38;;;2.28;87.84
78643;BME280;67954;47.618;17.606;2023-04-10T03:00:13;101090.06;;;2.23;87.98
78643;BME280;67954;47.618;17.606;2023-04-10T03:00:47;101087.47;;;2.22;87.77
78643;BME280;67954;47.618;17.606;2023-04-10T03:01:19;101087.88;;;2.14;88.44
78643;BME280;67954;47.618;17.606;2023-04-10T03:01:50;101096.69;;;2.14;88.22
78643;BME280;67954;47.618;17.606;2023-04-10T03:02:21;101088.94;;;2.10;88.16
78643;BME280;67954;47.618;17.606;2023-04-10T03:02:53;101089.97;;;2.07;87.75
78643;BME280;67954;47.618;17.606;2023-04-10T03:03:25;101093.31;;;2.11;88.62